الصفحة الرئيسية
METAR-TAF:

METAR-TAF

مطار :

السلفادور, السلفادور

دائرة عرض: 13-26N, خط طول: 089-03W, ارتفاع: 25 متر

مراقبة الطقس الحالي

تاريخ ووقت الإصدار 56 دقيقة قبل الساعة 09:50UTC
ريح 2 عقدة من الشرق/الشمال الشرقي
درجة الحرارة 24°درجة مئوية
الرطوبة 78%
ضغط 1012 hPa
الرؤية 10 كم أو أكثر
الغيوم لا تقل 1500 م ولا وجود لمزنة ركامية السحاب الأسود

METAR: MSLP 120950Z 06002KT CAVOK 24/20 Q1011 A2987 NOSIG

زمن: 04:46 (10:46 UTC)

توقعات

تاريخ ووقت الإصدار 7ساعات و 21 دقيقة قبل الساعة 03:25UTC
التوقعات صالحة من12 الساعة 06 UTC إلى 13 الساعة 06 UTC
ريح 3 عقدة من الشرق/الشمال الشرقي
الرؤية 10 كم أو أكثر
الغيوم لا تقل 1500 م ولا وجود لمزنة ركامية السحاب الأسود
من 12 الساعة 1900 UTC
ريح 6 عقدة من الجنوب/الجنوب الغربي
الرؤية 10 كم أو أكثر
غيوم متفرقة على ارتفاع 6500 قدم
من 13 الساعة 0000 UTC
ريح 2 عقدةمن اتجاهات متغيرة
غيوم قليلة على ارتفاع 6500 قدم

TAF: MSLP 120325Z 1206/1306 07003KT CAVOK TX35/1218Z TN22/1210Z FM121900 20006KT 9999 SCT065 FM130000 VRB02KT FEW065

أرصاد الطقس والتوقعات من أكثر من 4000 مطار (تقارير الطقس للمطار METAR والتنبؤ بالطقس بالمطارTAF).

المحطات المتاحة هي النقط الصفراء والحمراء على الخريطة.

حرك المؤشر فوق النقطة لمعرفة اسم المحطة.

ثم انقر لمعرفة أرصاد وتوقعات الطقس.

لتغيير الخارطة: اضغط على الأزرار الخضراء مع رمز الصليب الأسود للتكبير. على الزر الأخضر مع شرطة للتصغير، أو على الأسهم الخضراء للخرائط المجاورة.


METAR-TAF: